sensor_id;sensor_type;location;lat;lon;timestamp;temperature;humidity
50067;DHT22;35952;52.524;13.340;2023-05-19T00:00:14;11.20;99.90
50067;DHT22;35952;52.524;13.340;2023-05-19T00:02:40;11.20;99.90
50067;DHT22;35952;52.524;13.340;2023-05-19T00:05:08;11.10;99.90
50067;DHT22;35952;52.524;13.340;2023-05-19T00:07:37;11.00;99.90
50067;DHT22;35952;52.524;13.340;2023-05-19T00:10:03;10.90;99.90
50067;DHT22;35952;52.524;13.340;2023-05-19T00:12:29;11.00;99.90
50067;DHT22;35952;52.524;13.340;2023-05-19T00:14:55;11.00;99.90
50067;DHT22;35952;52.524;13.340;2023-05-19T00:17:20;10.90;99.90
50067;DHT22;35952;52.524;13.340;2023-05-19T00:19:46;10.90;99.90
50067;DHT22;35952;52.524;13.340;2023-05-19T00:22:12;10.90;99.90
50067;DHT22;35952;52.524;13.340;2023-05-19T00:24:38;10.90;99.90
50067;DHT22;35952;52.524;13.340;2023-05-19T00:27:03;10.80;99.90
50067;DHT22;35952;52.524;13.340;2023-05-19T00:29:29;10.80;99.90
50067;DHT22;35952;52.524;13.340;2023-05-19T00:31:55;10.70;99.90
50067;DHT22;35952;52.524;13.340;2023-05-19T00:34:20;10.80;99.90
50067;DHT22;35952;52.524;13.340;2023-05-19T00:36:46;10.80;99.90
50067;DHT22;35952;52.524;13.340;2023-05-19T00:39:11;10.70;99.90
50067;DHT22;35952;52.524;13.340;2023-05-19T00:41:37;10.60;99.90
50067;DHT22;35952;52.524;13.340;2023-05-19T00:44:02;10.60;99.90
50067;DHT22;35952;52.524;13.340;2023-05-19T00:46:28;10.50;99.90
50067;DHT22;35952;52.524;13.340;2023-05-19T00:48:54;10.50;99.90
50067;DHT22;35952;52.524;13.340;2023-05-19T00:51:21;10.50;99.90
50067;DHT22;35952;52.524;13.340;2023-05-19T00:53:49;10.50;99.90
50067;DHT22;35952;52.524;13.340;2023-05-19T00:56:17;10.40;99.90
50067;DHT22;35952;52.524;13.340;2023-05-19T00:58:43;10.30;99.90
50067;DHT22;35952;52.524;13.340;2023-05-19T01:01:09;10.40;99.90
50067;DHT22;35952;52.524;13.340;2023-05-19T01:03:38;10.40;99.90
50067;DHT22;35952;52.524;13.340;2023-05-19T01:06:05;10.30;99.90
50067;DHT22;35952;52.524;13.340;2023-05-19T01:08:36;10.40;99.90
50067;DHT22;35952;52.524;13.340;2023-05-19T01:11:03;10.30;99.90
50067;DHT22;35952;52.524;13.340;2023-05-19T01:13:29;10.30;99.90
50067;DHT22;35952;52.524;13.340;2023-05-19T01:16:09;10.20;99.90
50067;DHT22;35952;52.524;13.340;2023-05-19T01:18:44;10.30;99.90
50067;DHT22;35952;52.524;13.340;2023-05-19T01:24:59;10.20;99.90
50067;DHT22;35952;52.524;13.340;2023-05-19T01:32:48;10.10;99.90
50067;DHT22;35952;52.524;13.340;2023-05-19T01:35:14;10.00;99.90
50067;DHT22;35952;52.524;13.340;2023-05-19T01:37:41;10.00;99.90
50067;DHT22;35952;52.524;13.340;2023-05-19T01:40:08;10.10;99.90
50067;DHT22;35952;52.524;13.340;2023-05-19T01:42:34;10.10;99.90
50067;DHT22;35952;52.524;13.340;2023-05-19T01:45:03;10.10;99.90
50067;DHT22;35952;52.524;13.340;2023-05-19T01:47:35;10.10;99.90
50067;DHT22;35952;52.524;13.340;2023-05-19T01:50:04;10.10;99.90
50067;DHT22;35952;52.524;13.340;2023-05-19T01:52:30;10.10;99.90
50067;DHT22;35952;52.524;13.340;2023-05-19T01:54:56;10.00;99.90
50067;DHT22;35952;52.524;13.340;2023-05-19T01:58:12;10.00;99.90
50067;DHT22;35952;52.524;13.340;2023-05-19T02:12:18;9.80;99.90
50067;DHT22;35952;52.524;13.340;2023-05-19T02:14:52;9.80;99.90
50067;DHT22;35952;52.524;13.340;2023-05-19T02:17:19;9.90;99.90
50067;DHT22;35952;52.524;13.340;2023-05-19T02:19:45;9.80;99.90
50067;DHT22;35952;52.524;13.340;2023-05-19T02:22:11;9.90;99.90
50067;DHT22;35952;52.524;13.340;2023-05-19T02:24:36;9.80;99.90
50067;DHT22;35952;52.524;13.340;2023-05-19T02:27:03;9.90;99.90
50067;DHT22;35952;52.524;13.340;2023-05-19T02:29:29;9.90;99.90
50067;DHT22;35952;52.524;13.340;2023-05-19T02:31:54;9.90;99.90
50067;DHT22;35952;52.524;13.340;2023-05-19T02:34:20;9.70;99.90
50067;DHT22;35952;52.524;13.340;2023-05-19T02:36:46;9.90;99.90
50067;DHT22;35952;52.524;13.340;2023-05-19T02:39:14;10.00;99.90
50067;DHT22;35952;52.524;13.340;2023-05-19T02:41:40;9.80;99.90
50067;DHT22;35952;52.524;13.340;2023-05-19T02:44:05;9.80;99.90
50067;DHT22;35952;52.524;13.340;2023-05-19T02:46:32;9.70;99.90
50067;DHT22;35952;52.524;13.340;2023-05-19T02:48:57;9.70;99.90
50067;DHT22;35952;52.524;13.340;2023-05-19T02:51:23;9.70;99.90
50067;DHT22;35952;52.524;13.340;2023-05-19T02:53:49;9.80;99.90
50067;DHT22;35952;52.524;13.340;2023-05-19T02:56:14;9.80;99.90
50067;DHT22;35952;52.524;13.340;2023-05-19T02:58:40;9.80;99.90
50067;DHT22;35952;52.524;13.340;2023-05-19T03:01:07;9.80;99.90
50067;DHT22;35952;52.524;13.340;2023-05-19T03:03:33;9.90;99.90
50067;DHT22;35952;52.524;13.340;2023-05-19T03:05:58;10.00;99.90
50067;DHT22;35952;52.524;13.340;2023-05-19T03:08:24;10.00;99.90
50067;DHT22;35952;52.524;13.340;2023-05-19T03:10:49;10.00;99.90
50067;DHT22;35952;52.524;13.340;2023-05-19T03:13:15;10.00;99.90
50067;DHT22;35952;52.524;13.340;2023-05-19T03:15:41;9.90;99.90
50067;DHT22;35952;52.524;13.340;2023-05-19T03:18:07;9.90;99.90
50067;DHT22;35952;52.524;13.340;2023-05-19T03:20:32;9.80;99.90
50067;DHT22;35952;52.524;13.340;2023-05-19T03:22:58;9.80;99.90
50067;DHT22;35952;52.524;13.340;2023-05-19T03:25:24;9.90;99.90
50067;DHT22;35952;52.524;13.340;2023-05-19T03:27:50;9.90;99.90
50067;DHT22;35952;52.524;13.340;2023-05-19T03:30:15;9.80;99.90
50067;DHT22;35952;52.524;13.340;2023-05-19T03:32:41;9.90;99.90
50067;DHT22;35952;52.524;13.340;2023-05-19T03:35:07;9.80;99.90
50067;DHT22;35952;52.524;13.340;2023-05-19T03:37:32;9.90;99.90
50067;DHT22;35952;52.524;13.340;2023-05-19T03:39:58;10.00;99.90
50067;DHT22;35952;52.524;13.340;2023-05-19T03:42:24;10.00;99.90
50067;DHT22;35952;52.524;13.340;2023-05-19T03:44:50;9.90;99.90
50067;DHT22;35952;52.524;13.340;2023-05-19T03:47:15;10.00;99.90
50067;DHT22;35952;52.524;13.340;2023-05-19T03:49:41;10.00;99.90
50067;DHT22;35952;52.524;13.340;2023-05-19T03:52:07;9.90;99.90
50067;DHT22;35952;52.524;13.340;2023-05-19T03:54:34;9.90;99.90
50067;DHT22;35952;52.524;13.340;2023-05-19T03:57:00;9.90;99.90
50067;DHT22;35952;52.524;13.340;2023-05-19T03:59:26;9.90;99.90
50067;DHT22;35952;52.524;13.340;2023-05-19T04:01:52;9.90;99.90
50067;DHT22;35952;52.524;13.340;2023-05-19T04:04:17;10.00;99.90
50067;DHT22;35952;52.524;13.340;2023-05-19T04:06:43;10.30;99.90
50067;DHT22;35952;52.524;13.340;2023-05-19T04:09:13;10.30;99.90
50067;DHT22;35952;52.524;13.340;2023-05-19T04:11:40;10.40;99.90
50067;DHT22;35952;52.524;13.340;2023-05-19T04:14:06;10.40;99.90
50067;DHT22;35952;52.524;13.340;2023-05-19T04:16:32;10.40;99.90
50067;DHT22;35952;52.524;13.340;2023-05-19T04:18:57;10.60;99.90
50067;DHT22;35952;52.524;13.340;2023-05-19T04:21:23;10.60;99.90
50067;DHT22;35952;52.524;13.340;2023-05-19T04:23:48;10.80;99.90
50067;DHT22;35952;52.524;13.340;2023-05-19T04:26:14;10.80;99.90
50067;DHT22;35952;52.524;13.340;2023-05-19T04:28:40;10.70;99.90
50067;DHT22;35952;52.524;13.340;2023-05-19T04:31:12;10.80;99.90
50067;DHT22;35952;52.524;13.340;2023-05-19T04:33:39;10.90;99.90
50067;DHT22;35952;52.524;13.340;2023-05-19T04:36:08;11.00;99.90
50067;DHT22;35952;52.524;13.340;2023-05-19T04:38:36;11.00;99.90
50067;DHT22;35952;52.524;13.340;2023-05-19T04:41:04;11.10;99.90
50067;DHT22;35952;52.524;13.340;2023-05-19T04:43:30;11.20;99.90
50067;DHT22;35952;52.524;13.340;2023-05-19T04:45:56;11.10;99.90
50067;DHT22;35952;52.524;13.340;2023-05-19T04:48:22;11.30;99.90
50067;DHT22;35952;52.524;13.340;2023-05-19T04:50:48;11.20;99.90
50067;DHT22;35952;52.524;13.340;2023-05-19T04:53:14;11.30;99.90
50067;DHT22;35952;52.524;13.340;2023-05-19T04:55:39;11.30;99.90
50067;DHT22;35952;52.524;13.340;2023-05-19T04:58:05;11.50;99.90
50067;DHT22;35952;52.524;13.340;2023-05-19T05:00:31;11.70;99.90
50067;DHT22;35952;52.524;13.340;2023-05-19T05:02:57;12.00;99.90
50067;DHT22;35952;52.524;13.340;2023-05-19T05:05:22;12.20;99.90
50067;DHT22;35952;52.524;13.340;2023-05-19T05:07:49;12.20;99.90
50067;DHT22;35952;52.524;13.340;2023-05-19T05:10:15;12.30;99.90
50067;DHT22;35952;52.524;13.340;2023-05-19T05:12:41;12.40;99.90
50067;DHT22;35952;52.524;13.340;2023-05-19T05:15:08;12.60;99.90
50067;DHT22;35952;52.524;13.340;2023-05-19T05:17:34;12.80;99.90
50067;DHT22;35952;52.524;13.340;2023-05-19T05:20:01;13.00;99.90
50067;DHT22;35952;52.524;13.340;2023-05-19T05:22:27;13.10;99.90
50067;DHT22;35952;52.524;13.340;2023-05-19T05:24:53;13.20;99.90
50067;DHT22;35952;52.524;13.340;2023-05-19T05:27:18;13.30;99.90
50067;DHT22;35952;52.524;13.340;2023-05-19T05:29:44;13.50;99.90
50067;DHT22;35952;52.524;13.340;2023-05-19T05:32:10;14.10;99.90
50067;DHT22;35952;52.524;13.340;2023-05-19T05:34:35;14.50;99.90
50067;DHT22;35952;52.524;13.340;2023-05-19T05:37:02;14.90;98.20
50067;DHT22;35952;52.524;13.340;2023-05-19T05:39:28;14.60;98.30
50067;DHT22;35952;52.524;13.340;2023-05-19T05:41:53;14.40;98.40
50067;DHT22;35952;52.524;13.340;2023-05-19T05:44:19;13.90;99.40
50067;DHT22;35952;52.524;13.340;2023-05-19T05:46:45;13.60;99.90
50067;DHT22;35952;52.524;13.340;2023-05-19T05:49:11;13.50;99.90
50067;DHT22;35952;52.524;13.340;2023-05-19T05:51:38;13.70;99.90
50067;DHT22;35952;52.524;13.340;2023-05-19T05:54:05;13.80;99.90
50067;DHT22;35952;52.524;13.340;2023-05-19T05:56:31;14.00;99.90
50067;DHT22;35952;52.524;13.340;2023-05-19T05:58:58;14.20;99.90
50067;DHT22;35952;52.524;13.340;2023-05-19T06:01:23;14.30;99.90
50067;DHT22;35952;52.524;13.340;2023-05-19T06:03:49;14.70;99.30
50067;DHT22;35952;52.524;13.340;2023-05-19T06:06:15;15.00;97.60
50067;DHT22;35952;52.524;13.340;2023-05-19T06:08:40;15.00;96.40
50067;DHT22;35952;52.524;13.340;2023-05-19T06:11:06;15.40;96.00
50067;DHT22;35952;52.524;13.340;2023-05-19T06:13:36;15.90;94.40
50067;DHT22;35952;52.524;13.340;2023-05-19T06:16:02;16.70;91.70
50067;DHT22;35952;52.524;13.340;2023-05-19T06:18:28;15.90;91.40
50067;DHT22;35952;52.524;13.340;2023-05-19T06:20:53;16.00;91.20
50067;DHT22;35952;52.524;13.340;2023-05-19T06:23:19;16.70;89.60
50067;DHT22;35952;52.524;13.340;2023-05-19T06:25:45;16.80;89.90
50067;DHT22;35952;52.524;13.340;2023-05-19T06:28:10;17.30;85.30
50067;DHT22;35952;52.524;13.340;2023-05-19T06:30:36;17.40;82.30
50067;DHT22;35952;52.524;13.340;2023-05-19T06:33:01;17.10;82.40
50067;DHT22;35952;52.524;13.340;2023-05-19T06:35:29;18.20;80.50
50067;DHT22;35952;52.524;13.340;2023-05-19T06:37:55;19.30;76.70
50067;DHT22;35952;52.524;13.340;2023-05-19T06:40:21;20.50;69.00
50067;DHT22;35952;52.524;13.340;2023-05-19T06:42:47;21.30;61.20
50067;DHT22;35952;52.524;13.340;2023-05-19T06:45:12;21.80;58.60
50067;DHT22;35952;52.524;13.340;2023-05-19T06:47:38;22.20;56.40
50067;DHT22;35952;52.524;13.340;2023-05-19T06:50:07;22.30;55.20
50067;DHT22;35952;52.524;13.340;2023-05-19T06:52:33;22.30;55.40
50067;DHT22;35952;52.524;13.340;2023-05-19T06:54:58;21.80;55.20
50067;DHT22;35952;52.524;13.340;2023-05-19T06:57:24;21.40;55.30
50067;DHT22;35952;52.524;13.340;2023-05-19T06:59:49;20.90;56.10
50067;DHT22;35952;52.524;13.340;2023-05-19T07:02:15;20.60;56.80
50067;DHT22;35952;52.524;13.340;2023-05-19T07:04:40;20.40;58.20
50067;DHT22;35952;52.524;13.340;2023-05-19T07:07:07;20.30;57.90
50067;DHT22;35952;52.524;13.340;2023-05-19T07:09:33;20.50;58.30
50067;DHT22;35952;52.524;13.340;2023-05-19T07:11:59;20.50;58.50
50067;DHT22;35952;52.524;13.340;2023-05-19T07:14:25;20.20;58.50
50067;DHT22;35952;52.524;13.340;2023-05-19T07:16:51;20.20;57.60
50067;DHT22;35952;52.524;13.340;2023-05-19T07:19:17;19.90;58.20
50067;DHT22;35952;52.524;13.340;2023-05-19T07:21:44;20.40;57.80
50067;DHT22;35952;52.524;13.340;2023-05-19T07:24:10;21.40;56.70
50067;DHT22;35952;52.524;13.340;2023-05-19T07:26:35;22.40;54.60
50067;DHT22;35952;52.524;13.340;2023-05-19T07:29:01;22.10;54.00
50067;DHT22;35952;52.524;13.340;2023-05-19T07:31:26;22.30;53.90
50067;DHT22;35952;52.524;13.340;2023-05-19T07:33:52;22.80;53.80
50067;DHT22;35952;52.524;13.340;2023-05-19T07:36:17;22.80;52.70
50067;DHT22;35952;52.524;13.340;2023-05-19T07:38:44;22.50;52.50
50067;DHT22;35952;52.524;13.340;2023-05-19T07:41:11;22.50;52.80
50067;DHT22;35952;52.524;13.340;2023-05-19T07:43:36;22.60;53.30
50067;DHT22;35952;52.524;13.340;2023-05-19T07:46:02;22.50;53.90
50067;DHT22;35952;52.524;13.340;2023-05-19T07:48:27;23.00;52.90
50067;DHT22;35952;52.524;13.340;2023-05-19T07:50:53;23.10;53.10
50067;DHT22;35952;52.524;13.340;2023-05-19T07:53:19;23.40;52.50
50067;DHT22;35952;52.524;13.340;2023-05-19T07:55:47;23.70;52.30
50067;DHT22;35952;52.524;13.340;2023-05-19T07:58:14;24.00;51.10
50067;DHT22;35952;52.524;13.340;2023-05-19T08:00:39;23.60;50.60
50067;DHT22;35952;52.524;13.340;2023-05-19T08:03:07;23.30;51.70
50067;DHT22;35952;52.524;13.340;2023-05-19T08:05:34;23.60;51.10
50067;DHT22;35952;52.524;13.340;2023-05-19T08:07:59;22.90;50.90
50067;DHT22;35952;52.524;13.340;2023-05-19T08:10:25;23.30;51.20
50067;DHT22;35952;52.524;13.340;2023-05-19T08:12:50;23.40;51.00
50067;DHT22;35952;52.524;13.340;2023-05-19T08:15:16;22.80;51.50
50067;DHT22;35952;52.524;13.340;2023-05-19T08:17:43;22.40;51.60
50067;DHT22;35952;52.524;13.340;2023-05-19T08:20:09;23.00;52.20
50067;DHT22;35952;52.524;13.340;2023-05-19T08:22:35;23.50;51.60
50067;DHT22;35952;52.524;13.340;2023-05-19T08:25:01;24.70;50.50
50067;DHT22;35952;52.524;13.340;2023-05-19T08:27:28;24.60;48.50
50067;DHT22;35952;52.524;13.340;2023-05-19T08:29:54;23.50;49.70
50067;DHT22;35952;52.524;13.340;2023-05-19T08:32:20;23.30;50.90
50067;DHT22;35952;52.524;13.340;2023-05-19T08:34:45;23.30;50.50
50067;DHT22;35952;52.524;13.340;2023-05-19T08:37:11;22.80;50.10
50067;DHT22;35952;52.524;13.340;2023-05-19T08:39:37;22.40;51.50
50067;DHT22;35952;52.524;13.340;2023-05-19T08:42:03;22.10;51.60
50067;DHT22;35952;52.524;13.340;2023-05-19T08:44:29;21.80;52.70
50067;DHT22;35952;52.524;13.340;2023-05-19T08:46:56;21.80;52.20
50067;DHT22;35952;52.524;13.340;2023-05-19T08:49:32;21.90;51.30
50067;DHT22;35952;52.524;13.340;2023-05-19T08:55:03;21.20;50.80
50067;DHT22;35952;52.524;13.340;2023-05-19T08:57:30;20.90;51.20
50067;DHT22;35952;52.524;13.340;2023-05-19T08:59:57;20.50;51.70
50067;DHT22;35952;52.524;13.340;2023-05-19T09:02:23;20.50;52.00
50067;DHT22;35952;52.524;13.340;2023-05-19T09:04:49;20.30;52.30
50067;DHT22;35952;52.524;13.340;2023-05-19T09:07:15;20.30;52.50
50067;DHT22;35952;52.524;13.340;2023-05-19T09:09:42;21.00;53.20
50067;DHT22;35952;52.524;13.340;2023-05-19T09:12:12;21.70;51.50
50067;DHT22;35952;52.524;13.340;2023-05-19T09:14:38;22.00;50.10
50067;DHT22;35952;52.524;13.340;2023-05-19T09:17:03;22.70;49.50
50067;DHT22;35952;52.524;13.340;2023-05-19T09:19:29;22.50;48.90
50067;DHT22;35952;52.524;13.340;2023-05-19T09:21:59;22.50;48.90
50067;DHT22;35952;52.524;13.340;2023-05-19T09:24:25;22.40;48.30
50067;DHT22;35952;52.524;13.340;2023-05-19T09:26:54;22.40;47.90
50067;DHT22;35952;52.524;13.340;2023-05-19T09:29:21;22.30;47.90
50067;DHT22;35952;52.524;13.340;2023-05-19T09:31:47;21.70;48.10
50067;DHT22;35952;52.524;13.340;2023-05-19T09:34:14;21.60;48.90
50067;DHT22;35952;52.524;13.340;2023-05-19T09:36:40;21.40;48.60
50067;DHT22;35952;52.524;13.340;2023-05-19T09:39:16;21.10;48.60
50067;DHT22;35952;52.524;13.340;2023-05-19T09:41:42;21.50;49.20
50067;DHT22;35952;52.524;13.340;2023-05-19T09:44:33;22.50;48.50
50067;DHT22;35952;52.524;13.340;2023-05-19T09:46:57;23.20;47.00
50067;DHT22;35952;52.524;13.340;2023-05-19T09:49:25;23.00;45.80
50067;DHT22;35952;52.524;13.340;2023-05-19T09:51:54;23.70;46.20
50067;DHT22;35952;52.524;13.340;2023-05-19T09:54:23;23.90;44.60
50067;DHT22;35952;52.524;13.340;2023-05-19T09:56:58;24.80;44.30
50067;DHT22;35952;52.524;13.340;2023-05-19T09:59:24;26.00;42.20
50067;DHT22;35952;52.524;13.340;2023-05-19T10:01:59;25.70;42.30
50067;DHT22;35952;52.524;13.340;2023-05-19T10:04:26;24.70;42.60
50067;DHT22;35952;52.524;13.340;2023-05-19T10:06:55;24.80;42.80
50067;DHT22;35952;52.524;13.340;2023-05-19T10:09:24;24.90;43.30
50067;DHT22;35952;52.524;13.340;2023-05-19T10:11:57;24.60;43.10
50067;DHT22;35952;52.524;13.340;2023-05-19T10:14:27;24.10;43.00
50067;DHT22;35952;52.524;13.340;2023-05-19T10:16:55;23.00;43.70
50067;DHT22;35952;52.524;13.340;2023-05-19T10:19:26;22.50;45.00
50067;DHT22;35952;52.524;13.340;2023-05-19T10:21:52;22.40;45.90
50067;DHT22;35952;52.524;13.340;2023-05-19T10:24:18;22.00;46.40
50067;DHT22;35952;52.524;13.340;2023-05-19T10:29:14;21.40;47.30
50067;DHT22;35952;52.524;13.340;2023-05-19T10:31:42;21.50;47.50
50067;DHT22;35952;52.524;13.340;2023-05-19T10:36:54;22.10;46.40
50067;DHT22;35952;52.524;13.340;2023-05-19T10:39:32;21.80;47.40
50067;DHT22;35952;52.524;13.340;2023-05-19T10:42:16;22.20;46.60
50067;DHT22;35952;52.524;13.340;2023-05-19T10:47:24;21.80;46.00
50067;DHT22;35952;52.524;13.340;2023-05-19T10:49:52;21.50;47.10
50067;DHT22;35952;52.524;13.340;2023-05-19T10:52:19;21.30;46.90
50067;DHT22;35952;52.524;13.340;2023-05-19T10:54:46;21.50;47.80
50067;DHT22;35952;52.524;13.340;2023-05-19T10:57:15;21.60;47.30
50067;DHT22;35952;52.524;13.340;2023-05-19T10:59:43;21.50;46.70
50067;DHT22;35952;52.524;13.340;2023-05-19T11:05:10;21.50;47.20
50067;DHT22;35952;52.524;13.340;2023-05-19T11:07:40;21.50;47.00
50067;DHT22;35952;52.524;13.340;2023-05-19T11:10:07;21.50;47.30
50067;DHT22;35952;52.524;13.340;2023-05-19T11:12:41;21.30;47.10
50067;DHT22;35952;52.524;13.340;2023-05-19T11:15:16;20.90;47.70
50067;DHT22;35952;52.524;13.340;2023-05-19T11:17:46;20.80;48.00
50067;DHT22;35952;52.524;13.340;2023-05-19T11:20:26;20.80;47.70
50067;DHT22;35952;52.524;13.340;2023-05-19T11:23:13;20.60;48.00
50067;DHT22;35952;52.524;13.340;2023-05-19T11:25:43;20.40;48.40
50067;DHT22;35952;52.524;13.340;2023-05-19T11:28:10;20.50;48.70
50067;DHT22;35952;52.524;13.340;2023-05-19T11:30:43;20.40;48.60
50067;DHT22;35952;52.524;13.340;2023-05-19T11:33:09;20.20;48.90
50067;DHT22;35952;52.524;13.340;2023-05-19T11:35:35;20.10;49.30
50067;DHT22;35952;52.524;13.340;2023-05-19T11:38:01;20.40;49.50
50067;DHT22;35952;52.524;13.340;2023-05-19T11:40:28;20.80;48.90
50067;DHT22;35952;52.524;13.340;2023-05-19T11:42:53;21.10;48.00
50067;DHT22;35952;52.524;13.340;2023-05-19T11:45:25;21.00;48.00
50067;DHT22;35952;52.524;13.340;2023-05-19T11:47:51;21.00;48.50
50067;DHT22;35952;52.524;13.340;2023-05-19T11:50:18;20.80;47.80
50067;DHT22;35952;52.524;13.340;2023-05-19T11:52:44;20.80;48.30
50067;DHT22;35952;52.524;13.340;2023-05-19T11:55:15;20.50;48.10
50067;DHT22;35952;52.524;13.340;2023-05-19T11:57:49;20.80;48.60
50067;DHT22;35952;52.524;13.340;2023-05-19T12:00:15;20.80;49.20
50067;DHT22;35952;52.524;13.340;2023-05-19T12:02:40;20.70;48.40
50067;DHT22;35952;52.524;13.340;2023-05-19T12:05:06;20.90;48.10
50067;DHT22;35952;52.524;13.340;2023-05-19T12:07:33;20.70;47.10
50067;DHT22;35952;52.524;13.340;2023-05-19T12:09:58;20.50;47.00
50067;DHT22;35952;52.524;13.340;2023-05-19T12:12:24;20.50;48.20
50067;DHT22;35952;52.524;13.340;2023-05-19T12:14:50;20.50;47.50
50067;DHT22;35952;52.524;13.340;2023-05-19T12:17:18;20.50;47.50
50067;DHT22;35952;52.524;13.340;2023-05-19T12:19:45;20.50;47.60
50067;DHT22;35952;52.524;13.340;2023-05-19T12:22:12;20.50;47.90
50067;DHT22;35952;52.524;13.340;2023-05-19T12:24:38;20.50;47.80
50067;DHT22;35952;52.524;13.340;2023-05-19T12:29:34;20.50;47.00
50067;DHT22;35952;52.524;13.340;2023-05-19T12:32:00;20.40;46.70
50067;DHT22;35952;52.524;13.340;2023-05-19T12:34:26;20.30;46.80
50067;DHT22;35952;52.524;13.340;2023-05-19T12:36:51;20.30;47.20
50067;DHT22;35952;52.524;13.340;2023-05-19T12:39:17;20.40;47.00
50067;DHT22;35952;52.524;13.340;2023-05-19T12:41:44;20.90;47.00
50067;DHT22;35952;52.524;13.340;2023-05-19T12:44:16;20.90;46.40
50067;DHT22;35952;52.524;13.340;2023-05-19T12:46:43;20.90;46.60
50067;DHT22;35952;52.524;13.340;2023-05-19T12:49:08;20.70;47.40
50067;DHT22;35952;52.524;13.340;2023-05-19T12:51:35;20.50;47.20
50067;DHT22;35952;52.524;13.340;2023-05-19T12:54:02;20.30;47.60
50067;DHT22;35952;52.524;13.340;2023-05-19T12:56:28;20.30;47.60
50067;DHT22;35952;52.524;13.340;2023-05-19T12:58:54;20.50;48.10
50067;DHT22;35952;52.524;13.340;2023-05-19T13:01:21;20.50;47.80
50067;DHT22;35952;52.524;13.340;2023-05-19T13:03:47;20.40;48.20
50067;DHT22;35952;52.524;13.340;2023-05-19T13:06:13;20.50;48.00
50067;DHT22;35952;52.524;13.340;2023-05-19T13:08:39;20.60;48.00
50067;DHT22;35952;52.524;13.340;2023-05-19T13:11:05;20.40;48.00
50067;DHT22;35952;52.524;13.340;2023-05-19T13:13:31;20.10;48.30
50067;DHT22;35952;52.524;13.340;2023-05-19T13:15:56;20.20;48.10
50067;DHT22;35952;52.524;13.340;2023-05-19T13:18:22;20.10;48.40
50067;DHT22;35952;52.524;13.340;2023-05-19T13:20:47;20.20;48.70
50067;DHT22;35952;52.524;13.340;2023-05-19T13:23:14;20.40;48.50
50067;DHT22;35952;52.524;13.340;2023-05-19T13:25:40;20.90;48.40
50067;DHT22;35952;52.524;13.340;2023-05-19T13:28:06;21.40;47.90
50067;DHT22;35952;52.524;13.340;2023-05-19T13:30:33;21.90;46.80
50067;DHT22;35952;52.524;13.340;2023-05-19T13:32:59;21.70;46.40
50067;DHT22;35952;52.524;13.340;2023-05-19T13:35:24;21.10;46.60
50067;DHT22;35952;52.524;13.340;2023-05-19T13:37:50;20.90;47.00
50067;DHT22;35952;52.524;13.340;2023-05-19T13:40:16;20.70;47.50
50067;DHT22;35952;52.524;13.340;2023-05-19T13:42:42;20.50;48.10
50067;DHT22;35952;52.524;13.340;2023-05-19T13:45:08;20.20;48.60
50067;DHT22;35952;52.524;13.340;2023-05-19T13:47:34;20.00;49.50
50067;DHT22;35952;52.524;13.340;2023-05-19T13:50:00;19.70;49.80
50067;DHT22;35952;52.524;13.340;2023-05-19T13:52:26;19.60;50.30
50067;DHT22;35952;52.524;13.340;2023-05-19T13:54:51;19.60;50.40
50067;DHT22;35952;52.524;13.340;2023-05-19T13:57:19;19.60;50.30
50067;DHT22;35952;52.524;13.340;2023-05-19T13:59:44;19.40;50.80
50067;DHT22;35952;52.524;13.340;2023-05-19T14:02:10;19.20;51.20
50067;DHT22;35952;52.524;13.340;2023-05-19T14:04:36;19.30;51.10
50067;DHT22;35952;52.524;13.340;2023-05-19T14:07:03;19.50;51.40
50067;DHT22;35952;52.524;13.340;2023-05-19T14:09:29;19.50;50.80
50067;DHT22;35952;52.524;13.340;2023-05-19T14:11:55;19.60;51.00
50067;DHT22;35952;52.524;13.340;2023-05-19T14:14:20;19.80;50.80
50067;DHT22;35952;52.524;13.340;2023-05-19T14:16:46;19.70;50.40
50067;DHT22;35952;52.524;13.340;2023-05-19T14:19:12;19.40;50.90
50067;DHT22;35952;52.524;13.340;2023-05-19T14:21:38;19.50;51.10
50067;DHT22;35952;52.524;13.340;2023-05-19T14:24:04;19.50;51.00
50067;DHT22;35952;52.524;13.340;2023-05-19T14:26:29;19.70;50.80
50067;DHT22;35952;52.524;13.340;2023-05-19T14:28:55;19.80;50.70
50067;DHT22;35952;52.524;13.340;2023-05-19T14:31:23;19.90;51.00
50067;DHT22;35952;52.524;13.340;2023-05-19T14:33:51;20.00;51.00
50067;DHT22;35952;52.524;13.340;2023-05-19T14:36:17;19.90;51.20
50067;DHT22;35952;52.524;13.340;2023-05-19T14:38:42;19.90;51.00
50067;DHT22;35952;52.524;13.340;2023-05-19T14:41:08;19.90;51.10
50067;DHT22;35952;52.524;13.340;2023-05-19T14:43:34;19.70;51.10
50067;DHT22;35952;52.524;13.340;2023-05-19T14:45:59;19.60;51.10
50067;DHT22;35952;52.524;13.340;2023-05-19T14:48:25;19.60;51.50
50067;DHT22;35952;52.524;13.340;2023-05-19T14:50:51;19.60;51.50
50067;DHT22;35952;52.524;13.340;2023-05-19T14:53:17;19.50;52.30
50067;DHT22;35952;52.524;13.340;2023-05-19T14:55:43;19.60;52.00
50067;DHT22;35952;52.524;13.340;2023-05-19T14:58:09;19.40;52.20
50067;DHT22;35952;52.524;13.340;2023-05-19T15:00:34;19.40;52.50
50067;DHT22;35952;52.524;13.340;2023-05-19T15:03:01;19.50;52.70
50067;DHT22;35952;52.524;13.340;2023-05-19T15:05:26;19.50;52.50
50067;DHT22;35952;52.524;13.340;2023-05-19T15:07:52;19.30;52.90
50067;DHT22;35952;52.524;13.340;2023-05-19T15:10:18;19.30;52.90
50067;DHT22;35952;52.524;13.340;2023-05-19T15:12:47;19.30;52.40
50067;DHT22;35952;52.524;13.340;2023-05-19T15:15:12;19.40;52.40
50067;DHT22;35952;52.524;13.340;2023-05-19T15:17:39;19.60;52.30
50067;DHT22;35952;52.524;13.340;2023-05-19T15:20:05;19.70;51.70
50067;DHT22;35952;52.524;13.340;2023-05-19T15:22:31;19.70;51.30
50067;DHT22;35952;52.524;13.340;2023-05-19T15:24:56;19.50;51.40
50067;DHT22;35952;52.524;13.340;2023-05-19T15:27:22;19.30;51.70
50067;DHT22;35952;52.524;13.340;2023-05-19T15:29:48;19.10;51.80
50067;DHT22;35952;52.524;13.340;2023-05-19T15:32:13;19.00;52.00
50067;DHT22;35952;52.524;13.340;2023-05-19T15:34:39;18.90;52.60
50067;DHT22;35952;52.524;13.340;2023-05-19T15:37:04;18.90;52.60
50067;DHT22;35952;52.524;13.340;2023-05-19T15:39:30;18.70;52.60
50067;DHT22;35952;52.524;13.340;2023-05-19T15:41:57;18.60;52.90
50067;DHT22;35952;52.524;13.340;2023-05-19T15:44:23;18.70;52.80
50067;DHT22;35952;52.524;13.340;2023-05-19T15:46:48;18.80;53.00
50067;DHT22;35952;52.524;13.340;2023-05-19T15:49:14;18.90;52.30
50067;DHT22;35952;52.524;13.340;2023-05-19T15:51:39;19.00;52.10